createdAt,value
2019-05-07T00:01:54.978Z,4.92
2019-05-07T00:04:24.419Z,4.92
2019-05-07T00:06:55.195Z,4.95
2019-05-07T00:09:25.448Z,4.96
2019-05-07T00:11:56.002Z,4.97
2019-05-07T00:14:26.707Z,4.97
2019-05-07T00:16:59.564Z,4.97
2019-05-07T00:19:32.391Z,4.98
2019-05-07T00:22:02.909Z,4.93
2019-05-07T00:24:33.591Z,4.91
2019-05-07T00:27:03.871Z,4.88
2019-05-07T00:29:34.676Z,4.88
2019-05-07T00:32:05.329Z,4.85
2019-05-07T00:34:43.745Z,4.84
2019-05-07T00:37:22.007Z,4.85
2019-05-07T00:40:12.928Z,4.85
2019-05-07T00:43:02.706Z,4.83
2019-05-07T00:45:43.769Z,4.83
2019-05-07T00:48:14.376Z,4.82
2019-05-07T00:50:46.321Z,4.82
2019-05-07T00:53:17.073Z,4.79
2019-05-07T00:55:47.789Z,4.82
2019-05-07T00:58:18.363Z,4.81
2019-05-07T01:00:48.702Z,4.79
2019-05-07T01:03:19.343Z,4.77
2019-05-07T01:05:49.621Z,4.77
2019-05-07T01:08:22.464Z,4.75
2019-05-07T01:10:53.078Z,4.72
2019-05-07T01:13:23.638Z,4.72
2019-05-07T01:15:53.760Z,4.73
2019-05-07T01:18:23.987Z,4.71
2019-05-07T01:20:54.645Z,4.70
2019-05-07T01:23:25.650Z,4.68
2019-05-07T01:25:55.873Z,4.64
2019-05-07T01:28:26.053Z,4.62
2019-05-07T01:30:56.346Z,4.60
2019-05-07T01:33:33.328Z,4.61
2019-05-07T01:36:07.775Z,4.61
2019-05-07T01:38:38.733Z,4.60
2019-05-07T01:41:08.965Z,4.61
2019-05-07T01:43:39.198Z,4.57
2019-05-07T01:46:09.564Z,4.55
2019-05-07T01:48:39.825Z,4.57
2019-05-07T01:51:12.645Z,4.57
2019-05-07T01:53:42.981Z,4.57
2019-05-07T01:56:13.993Z,4.55
2019-05-07T01:58:45.309Z,4.53
2019-05-07T02:01:15.528Z,4.52
2019-05-07T02:04:02.340Z,4.51
2019-05-07T02:06:40.264Z,4.53
2019-05-07T02:09:22.525Z,4.58
2019-05-07T02:12:13.215Z,4.63
2019-05-07T02:14:43.742Z,4.66
2019-05-07T02:17:13.940Z,4.67
2019-05-07T02:19:44.531Z,4.70
2019-05-07T02:22:14.841Z,4.75
2019-05-07T02:24:45.675Z,4.75
2019-05-07T02:27:16.019Z,4.75
2019-05-07T02:29:46.270Z,4.76
2019-05-07T02:32:17.428Z,4.70
2019-05-07T02:34:47.613Z,4.69
2019-05-07T02:37:29.514Z,4.68
2019-05-07T02:40:24.448Z,4.67
2019-05-07T02:42:55.016Z,4.68
2019-05-07T02:45:53.541Z,4.66
2019-05-07T02:48:27.094Z,4.64
2019-05-07T02:51:06.080Z,4.61
2019-05-07T02:53:43.337Z,4.59
2019-05-07T02:56:13.873Z,4.54
2019-05-07T02:58:44.383Z,4.50
2019-05-07T03:01:14.595Z,4.45
2019-05-07T03:03:45.244Z,4.41
2019-05-07T03:06:15.538Z,4.37
2019-05-07T03:08:48.081Z,4.34
2019-05-07T03:11:18.343Z,4.34
2019-05-07T03:13:53.728Z,4.35
2019-05-07T03:16:38.080Z,4.35
2019-05-07T03:18:55.517Z,4.34
2019-05-07T03:21:27.420Z,4.32
2019-05-07T03:24:08.250Z,4.30
2019-05-07T03:26:43.433Z,4.26
2019-05-07T03:29:18.937Z,4.22
2019-05-07T03:31:57.385Z,4.19
2019-05-07T03:34:46.772Z,4.21
2019-05-07T03:37:17.868Z,4.22
2019-05-07T03:39:48.188Z,4.24
2019-05-07T03:42:19.189Z,4.28
2019-05-07T03:45:13.736Z,4.31
2019-05-07T03:47:46.237Z,4.32
2019-05-07T03:50:16.824Z,4.31
2019-05-07T03:52:47.047Z,4.30
2019-05-07T03:55:17.809Z,4.31
2019-05-07T03:57:47.983Z,4.31
2019-05-07T04:00:18.965Z,4.32
2019-05-07T04:02:52.750Z,4.32
2019-05-07T04:05:23.490Z,4.31
2019-05-07T04:07:54.251Z,4.34
2019-05-07T04:10:24.448Z,4.37
2019-05-07T04:12:54.924Z,4.41
2019-05-07T04:15:25.975Z,4.45
2019-05-07T04:17:56.921Z,4.49
2019-05-07T04:20:27.102Z,4.53
2019-05-07T04:22:57.866Z,4.58
2019-05-07T04:25:56.454Z,4.60
2019-05-07T04:28:36.792Z,4.63
2019-05-07T04:31:07.425Z,4.66
2019-05-07T04:33:43.914Z,4.68
2019-05-07T04:36:18.815Z,4.71
2019-05-07T04:38:49.078Z,4.74
2019-05-07T04:41:22.993Z,4.75
2019-05-07T04:43:54.068Z,4.75
2019-05-07T04:46:24.108Z,4.78
2019-05-07T04:48:58.057Z,4.76
2019-05-07T04:51:39.222Z,4.79
2019-05-07T04:54:13.132Z,4.85
2019-05-07T04:56:43.733Z,4.90
2019-05-07T04:59:14.329Z,4.96
2019-05-07T05:01:53.291Z,5.03
2019-05-07T05:04:30.164Z,5.09
2019-05-07T05:06:55.114Z,5.17
2019-05-07T05:09:25.835Z,5.31
2019-05-07T05:11:56.164Z,5.48
2019-05-07T05:14:26.714Z,5.65
2019-05-07T05:16:57.779Z,5.78
2019-05-07T05:19:28.230Z,5.84
2019-05-07T05:22:12.826Z,5.75
2019-05-07T05:24:46.116Z,5.69
2019-05-07T05:27:16.842Z,5.57
2019-05-07T05:29:47.525Z,5.62
2019-05-07T05:32:18.485Z,5.61
2019-05-07T05:34:48.708Z,5.59
2019-05-07T05:37:18.955Z,5.66
2019-05-07T05:40:04.827Z,5.73
2019-05-07T05:42:33.008Z,5.80
2019-05-07T05:45:03.324Z,5.77
2019-05-07T05:47:33.568Z,5.63
2019-05-07T05:50:05.434Z,5.47
2019-05-07T05:52:46.805Z,5.39
2019-05-07T05:55:22.567Z,5.30
2019-05-07T05:58:07.343Z,5.29
2019-05-07T06:00:55.323Z,5.28
2019-05-07T06:03:43.676Z,5.32
2019-05-07T06:06:39.701Z,5.41
2019-05-07T06:09:17.436Z,5.48
2019-05-07T06:12:25.214Z,5.65
2019-05-07T06:15:06.176Z,5.75
2019-05-07T06:17:54.745Z,5.76
2019-05-07T06:20:34.773Z,5.86
2019-05-07T06:23:33.118Z,5.95
2019-05-07T06:26:05.434Z,6.00
2019-05-07T06:28:36.840Z,6.05
2019-05-07T06:31:08.709Z,6.17
2019-05-07T06:33:42.884Z,6.28
2019-05-07T06:36:14.560Z,6.39
2019-05-07T06:38:55.455Z,6.54
2019-05-07T06:41:44.533Z,6.68
2019-05-07T06:44:22.406Z,6.88
2019-05-07T06:46:53.928Z,7.06
2019-05-07T06:49:28.856Z,7.20
2019-05-07T06:52:00.022Z,7.35
2019-05-07T06:54:32.674Z,7.50
2019-05-07T06:57:04.357Z,7.69
2019-05-07T06:59:44.065Z,7.89
2019-05-07T07:02:42.028Z,8.08
2019-05-07T07:05:23.424Z,8.28
2019-05-07T07:07:58.985Z,8.45
2019-05-07T07:10:48.051Z,8.48
2019-05-07T07:13:23.034Z,8.41
2019-05-07T07:15:54.451Z,8.25
2019-05-07T07:18:26.319Z,8.10
2019-05-07T07:20:57.826Z,7.96
2019-05-07T07:23:32.119Z,7.81
2019-05-07T07:26:03.439Z,7.80
2019-05-07T07:28:35.333Z,7.99
2019-05-07T07:31:26.252Z,8.20
2019-05-07T07:34:02.352Z,8.33
2019-05-07T07:36:42.367Z,8.52
2019-05-07T07:39:15.140Z,8.58
2019-05-07T07:41:52.248Z,8.70
2019-05-07T07:44:24.190Z,8.82
2019-05-07T07:46:56.099Z,8.99
2019-05-07T07:49:28.910Z,9.17
2019-05-07T07:52:02.988Z,9.41
2019-05-07T07:54:34.558Z,9.64
2019-05-07T07:57:12.747Z,9.75
2019-05-07T07:59:54.797Z,9.80
2019-05-07T08:02:39.829Z,9.90
2019-05-07T08:05:12.519Z,9.94
2019-05-07T08:07:42.765Z,9.87
2019-05-07T08:10:13.122Z,9.86
2019-05-07T08:12:45.718Z,9.79
2019-05-07T08:15:20.824Z,9.54
2019-05-07T08:17:48.301Z,9.40
2019-05-07T08:20:19.419Z,9.28
2019-05-07T08:22:52.516Z,9.15
2019-05-07T08:25:42.593Z,9.29
2019-05-07T08:28:12.967Z,9.26
2019-05-07T08:30:44.938Z,9.16
2019-05-07T08:33:22.316Z,9.24
2019-05-07T08:36:14.360Z,9.34
2019-05-07T08:38:57.587Z,9.53
2019-05-07T08:41:28.941Z,9.72
2019-05-07T08:44:11.735Z,9.85
2019-05-07T08:46:58.477Z,10.03
2019-05-07T08:49:36.992Z,10.18
2019-05-07T08:52:03.450Z,10.35
2019-05-07T08:54:35.553Z,10.47
2019-05-07T08:57:05.820Z,10.55
2019-05-07T08:59:36.098Z,10.53
2019-05-07T09:02:06.343Z,10.45
2019-05-07T09:04:36.614Z,10.40
2019-05-07T09:07:06.764Z,10.46
2019-05-07T09:09:37.343Z,10.67
2019-05-07T09:12:07.966Z,10.87
2019-05-07T09:14:39.223Z,11.06
2019-05-07T09:17:09.602Z,11.25
2019-05-07T09:19:48.279Z,11.35
2019-05-07T09:22:12.732Z,11.24
2019-05-07T09:24:43.121Z,10.93
2019-05-07T09:27:35.256Z,10.82
2019-05-07T09:30:42.089Z,11.08
2019-05-07T09:33:22.677Z,11.52
2019-05-07T09:35:54.945Z,11.46
2019-05-07T09:38:25.654Z,11.48
2019-05-07T09:40:57.122Z,11.74
2019-05-07T09:43:27.376Z,12.04
2019-05-07T09:45:57.910Z,11.78
2019-05-07T09:48:28.234Z,11.02
2019-05-07T09:50:58.415Z,10.65
2019-05-07T09:53:28.803Z,10.32
2019-05-07T09:55:59.403Z,10.05
2019-05-07T09:58:36.785Z,9.88
2019-05-07T10:01:03.361Z,9.70
2019-05-07T10:03:33.623Z,9.63
2019-05-07T10:06:04.009Z,9.59
2019-05-07T10:08:34.713Z,9.54
2019-05-07T10:11:06.734Z,9.50
2019-05-07T10:13:47.742Z,10.34
2019-05-07T10:16:24.116Z,11.63
2019-05-07T10:18:54.496Z,13.01
2019-05-07T10:21:25.652Z,14.23
2019-05-07T10:23:56.016Z,15.71
2019-05-07T10:26:26.827Z,16.46
2019-05-07T10:28:57.339Z,13.54
2019-05-07T10:31:27.666Z,13.54
2019-05-07T10:33:59.011Z,11.32
2019-05-07T10:36:32.013Z,10.11
2019-05-07T10:39:03.093Z,9.18
2019-05-07T10:41:33.782Z,8.77
2019-05-07T10:44:04.136Z,8.60
2019-05-07T10:46:53.432Z,8.53
2019-05-07T10:49:27.351Z,8.67
2019-05-07T10:51:57.618Z,9.39
2019-05-07T10:54:29.834Z,10.74
2019-05-07T10:57:00.153Z,11.92
2019-05-07T10:59:31.165Z,12.81
2019-05-07T11:02:26.613Z,13.13
2019-05-07T11:04:57.147Z,12.64
2019-05-07T11:07:27.472Z,12.04
2019-05-07T11:09:58.883Z,11.46
2019-05-07T11:12:29.105Z,10.85
2019-05-07T11:14:59.316Z,10.61
2019-05-07T11:17:47.867Z,10.35
2019-05-07T11:20:18.734Z,10.20
2019-05-07T11:22:52.045Z,10.10
2019-05-07T11:25:22.555Z,10.06
2019-05-07T11:27:52.970Z,10.16
2019-05-07T11:30:24.333Z,10.26
2019-05-07T11:32:54.548Z,11.03
2019-05-07T11:35:25.186Z,12.13
2019-05-07T11:37:56.098Z,13.99
2019-05-07T11:40:26.463Z,13.99
2019-05-07T11:43:15.789Z,13.85
2019-05-07T11:45:59.124Z,13.23
2019-05-07T11:48:29.566Z,12.39
2019-05-07T11:51:09.081Z,11.91
2019-05-07T11:54:01.948Z,12.28
2019-05-07T11:56:32.951Z,12.24
2019-05-07T11:59:04.221Z,12.93
2019-05-07T12:01:46.192Z,13.86
2019-05-07T12:04:08.379Z,14.77
2019-05-07T12:06:38.635Z,14.12
2019-05-07T12:09:12.162Z,13.78
2019-05-07T12:11:43.603Z,14.28
2019-05-07T12:14:27.351Z,14.96
2019-05-07T12:16:46.147Z,15.47
2019-05-07T12:19:16.932Z,15.51
2019-05-07T12:21:47.512Z,15.51
2019-05-07T12:24:18.202Z,15.70
2019-05-07T12:26:49.041Z,15.83
2019-05-07T12:29:19.280Z,15.01
2019-05-07T12:32:10.444Z,14.41
2019-05-07T12:34:54.231Z,13.52
2019-05-07T12:37:24.674Z,13.52
2019-05-07T12:39:55.308Z,13.19
2019-05-07T12:42:25.891Z,13.32
2019-05-07T12:44:56.462Z,13.32
2019-05-07T12:47:26.684Z,13.17
2019-05-07T12:49:57.118Z,12.79
2019-05-07T12:52:36.423Z,12.41
2019-05-07T12:55:19.112Z,12.18
2019-05-07T12:57:51.779Z,12.02
2019-05-07T13:00:39.122Z,11.86
2019-05-07T13:03:43.477Z,11.77
2019-05-07T13:06:13.709Z,11.51
2019-05-07T13:08:44.012Z,11.25
2019-05-07T13:11:14.256Z,11.03
2019-05-07T13:13:44.764Z,10.99
2019-05-07T13:16:15.509Z,11.42
2019-05-07T13:18:45.860Z,12.85
2019-05-07T13:21:16.084Z,14.22
2019-05-07T13:23:46.597Z,15.58
2019-05-07T13:26:18.518Z,16.52
2019-05-07T13:28:49.041Z,17.44
2019-05-07T13:31:22.790Z,17.77
2019-05-07T13:33:53.421Z,17.30
2019-05-07T13:36:24.057Z,17.56
2019-05-07T13:39:02.439Z,17.98
2019-05-07T13:41:53.595Z,18.48
2019-05-07T13:44:45.692Z,17.80
2019-05-07T13:47:30.445Z,17.17
2019-05-07T13:50:02.600Z,17.19
2019-05-07T13:52:33.943Z,17.19
2019-05-07T13:55:04.620Z,17.27
2019-05-07T13:57:34.893Z,17.59
2019-05-07T14:00:06.655Z,18.31
2019-05-07T14:02:37.647Z,18.56
2019-05-07T14:05:07.959Z,18.37
2019-05-07T14:07:41.705Z,17.60
2019-05-07T14:10:12.744Z,16.49
2019-05-07T14:12:43.838Z,15.91
2019-05-07T14:15:14.298Z,16.86
2019-05-07T14:17:48.408Z,17.68
2019-05-07T14:20:18.831Z,18.39
2019-05-07T14:22:49.167Z,17.99
2019-05-07T14:25:19.498Z,17.91
2019-05-07T14:27:49.907Z,17.74
2019-05-07T14:30:21.716Z,17.24
2019-05-07T14:33:01.846Z,16.66
2019-05-07T14:35:57.018Z,16.32
2019-05-07T14:38:32.128Z,15.98
2019-05-07T14:41:02.802Z,15.05
2019-05-07T14:43:42.090Z,15.23
2019-05-07T14:46:12.359Z,15.61
2019-05-07T14:48:43.844Z,15.71
2019-05-07T14:51:14.509Z,15.96
2019-05-07T14:53:44.702Z,16.54
2019-05-07T14:56:18.006Z,17.00
2019-05-07T14:58:49.010Z,16.22
2019-05-07T15:01:22.271Z,15.49
2019-05-07T15:03:53.102Z,15.07
2019-05-07T15:06:23.597Z,14.96
2019-05-07T15:08:53.891Z,14.91
2019-05-07T15:11:25.383Z,15.30
2019-05-07T15:13:56.077Z,16.22
2019-05-07T15:16:28.761Z,16.86
2019-05-07T15:18:59.414Z,17.48
2019-05-07T15:21:32.330Z,17.63
2019-05-07T15:24:04.524Z,17.81
2019-05-07T15:26:35.964Z,18.34
2019-05-07T15:29:12.221Z,18.48
2019-05-07T15:32:03.366Z,18.43
2019-05-07T15:34:34.417Z,18.32
2019-05-07T15:37:04.709Z,17.93
2019-05-07T15:39:36.868Z,18.14
2019-05-07T15:42:08.827Z,18.41
2019-05-07T15:44:39.257Z,17.82
2019-05-07T15:47:14.613Z,17.62
2019-05-07T15:49:46.114Z,17.58
2019-05-07T15:52:24.709Z,17.06
2019-05-07T15:54:56.875Z,17.07
2019-05-07T15:57:32.755Z,16.79
2019-05-07T16:00:09.792Z,15.92
2019-05-07T16:02:45.460Z,15.08
2019-05-07T16:05:18.865Z,14.76
2019-05-07T16:07:52.342Z,14.99
2019-05-07T16:10:24.810Z,14.86
2019-05-07T16:12:57.906Z,14.59
2019-05-07T16:15:31.777Z,14.27
2019-05-07T16:18:07.124Z,13.72
2019-05-07T16:20:39.460Z,13.72
2019-05-07T16:23:15.718Z,13.58
2019-05-07T16:25:46.102Z,13.31
2019-05-07T16:28:18.971Z,13.08
2019-05-07T16:30:52.084Z,12.86
2019-05-07T16:33:25.431Z,12.74
2019-05-07T16:35:57.439Z,12.60
2019-05-07T16:38:32.762Z,12.64
2019-05-07T16:41:13.889Z,12.64
2019-05-07T16:43:47.881Z,12.59
2019-05-07T16:46:22.226Z,12.61
2019-05-07T16:48:53.553Z,12.68
2019-05-07T16:51:26.470Z,12.66
2019-05-07T16:54:01.394Z,12.60
2019-05-07T16:56:35.183Z,12.54
2019-05-07T16:59:08.002Z,12.47
2019-05-07T17:01:42.898Z,12.37
2019-05-07T17:04:15.914Z,12.36
2019-05-07T17:06:48.475Z,12.38
2019-05-07T17:09:19.020Z,12.45
2019-05-07T17:11:49.346Z,12.55
2019-05-07T17:14:19.642Z,12.56
2019-05-07T17:16:51.692Z,12.43
2019-05-07T17:19:22.490Z,12.23
2019-05-07T17:21:52.860Z,12.03
2019-05-07T17:24:23.497Z,11.87
2019-05-07T17:26:53.679Z,11.78
2019-05-07T17:29:24.316Z,11.72
2019-05-07T17:31:55.600Z,11.74
2019-05-07T17:34:25.797Z,11.75
2019-05-07T17:36:56.030Z,11.76
2019-05-07T17:39:29.103Z,11.75
2019-05-07T17:41:59.638Z,11.70
2019-05-07T17:44:32.323Z,11.62
2019-05-07T17:47:02.419Z,11.56
2019-05-07T17:49:34.931Z,11.52
2019-05-07T17:52:04.582Z,11.49
2019-05-07T17:54:35.456Z,11.39
2019-05-07T17:57:05.900Z,11.33
2019-05-07T17:59:36.767Z,11.26
2019-05-07T18:02:23.412Z,11.26
2019-05-07T18:04:54.821Z,11.33
2019-05-07T18:07:26.585Z,11.39
2019-05-07T18:09:57.550Z,11.40
2019-05-07T18:12:28.302Z,11.38
2019-05-07T18:14:59.225Z,11.34
2019-05-07T18:17:42.185Z,11.29
2019-05-07T18:20:12.945Z,11.19
2019-05-07T18:22:43.626Z,11.04
2019-05-07T18:25:14.054Z,11.02
2019-05-07T18:27:44.283Z,10.88
2019-05-07T18:30:17.670Z,10.75
2019-05-07T18:32:53.817Z,10.65
2019-05-07T18:35:25.885Z,10.50
2019-05-07T18:37:56.303Z,10.48
2019-05-07T18:40:27.296Z,10.48
2019-05-07T18:42:59.174Z,10.43
2019-05-07T18:45:30.721Z,10.43
2019-05-07T18:48:04.602Z,10.39
2019-05-07T18:50:35.441Z,10.31
2019-05-07T18:53:06.434Z,10.22
2019-05-07T18:55:36.711Z,10.18
2019-05-07T18:58:06.955Z,10.14
2019-05-07T19:00:42.395Z,10.10
2019-05-07T19:03:13.186Z,9.97
2019-05-07T19:05:48.206Z,9.84
2019-05-07T19:08:22.962Z,9.79
2019-05-07T19:10:53.816Z,9.80
2019-05-07T19:13:24.802Z,9.80
2019-05-07T19:15:57.195Z,9.81
2019-05-07T19:18:28.098Z,9.77
2019-05-07T19:20:59.723Z,9.79
2019-05-07T19:23:30.130Z,9.75
2019-05-07T19:26:02.449Z,9.73
2019-05-07T19:28:33.608Z,9.73
2019-05-07T19:31:04.056Z,9.62
2019-05-07T19:33:34.766Z,9.49
2019-05-07T19:36:08.223Z,9.41
2019-05-07T19:38:38.807Z,9.42
2019-05-07T19:41:09.264Z,9.30
2019-05-07T19:43:41.779Z,9.27
2019-05-07T19:46:16.296Z,9.35
2019-05-07T19:48:46.850Z,9.30
2019-05-07T19:51:17.866Z,9.21
2019-05-07T19:53:48.213Z,9.20
2019-05-07T19:56:22.029Z,9.25
2019-05-07T19:58:52.843Z,9.35
2019-05-07T20:01:32.325Z,9.24
2019-05-07T20:04:04.769Z,9.28
2019-05-07T20:06:35.480Z,9.25
2019-05-07T20:09:12.293Z,9.23
2019-05-07T20:11:44.731Z,9.22
2019-05-07T20:14:15.143Z,9.22
2019-05-07T20:16:45.522Z,9.26
2019-05-07T20:19:15.951Z,9.30
2019-05-07T20:21:48.043Z,9.21
2019-05-07T20:24:18.374Z,9.22
2019-05-07T20:26:48.748Z,9.31
2019-05-07T20:29:19.055Z,9.31
2019-05-07T20:31:49.560Z,9.25
2019-05-07T20:34:22.106Z,9.18
2019-05-07T20:36:52.545Z,9.23
2019-05-07T20:39:29.353Z,9.20
2019-05-07T20:42:03.021Z,9.15
2019-05-07T20:44:34.009Z,9.14
2019-05-07T20:47:05.414Z,9.26
2019-05-07T20:49:36.193Z,9.30
2019-05-07T20:52:06.989Z,9.27
2019-05-07T20:54:46.096Z,9.25
2019-05-07T20:57:22.325Z,9.33
2019-05-07T20:59:53.320Z,9.36
2019-05-07T21:02:23.602Z,9.40
2019-05-07T21:04:54.281Z,9.38
2019-05-07T21:07:25.006Z,9.47
2019-05-07T21:09:55.335Z,9.43
2019-05-07T21:12:25.658Z,9.59
2019-05-07T21:14:56.596Z,9.57
2019-05-07T21:17:26.796Z,9.49
2019-05-07T21:19:57.352Z,9.52
2019-05-07T21:22:27.761Z,9.52
2019-05-07T21:24:58.161Z,9.55
2019-05-07T21:27:28.436Z,9.46
2019-05-07T21:29:59.548Z,9.41
2019-05-07T21:32:32.386Z,9.41
2019-05-07T21:35:01.956Z,9.50
2019-05-07T21:37:33.078Z,9.55
2019-05-07T21:40:03.627Z,9.53
2019-05-07T21:42:33.837Z,9.55
2019-05-07T21:45:04.258Z,9.45
2019-05-07T21:47:34.531Z,9.53
2019-05-07T21:50:09.539Z,9.52
2019-05-07T21:52:43.028Z,9.47
2019-05-07T21:55:29.133Z,9.44
2019-05-07T21:58:18.299Z,9.35
2019-05-07T22:01:12.348Z,9.37
2019-05-07T22:03:43.238Z,9.47
2019-05-07T22:06:14.057Z,9.55
2019-05-07T22:08:46.864Z,9.43
2019-05-07T22:11:17.187Z,9.46
2019-05-07T22:13:47.375Z,9.48
2019-05-07T22:16:18.091Z,9.31
2019-05-07T22:18:48.271Z,9.37
2019-05-07T22:21:18.447Z,9.22
2019-05-07T22:23:52.048Z,9.30
2019-05-07T22:26:26.210Z,9.14
2019-05-07T22:28:54.638Z,9.21
2019-05-07T22:31:47.025Z,9.25
2019-05-07T22:34:37.649Z,9.17
2019-05-07T22:37:07.945Z,9.25
2019-05-07T22:39:38.418Z,9.35
2019-05-07T22:42:08.792Z,9.36
2019-05-07T22:44:39.485Z,9.38
2019-05-07T22:47:22.207Z,9.35
2019-05-07T22:49:53.497Z,9.18
2019-05-07T22:52:24.169Z,9.08
2019-05-07T22:54:54.412Z,9.03
2019-05-07T22:57:52.410Z,9.11
2019-05-07T23:00:33.104Z,9.08
2019-05-07T23:03:03.361Z,9.19
2019-05-07T23:05:33.790Z,9.12
2019-05-07T23:08:04.548Z,9.18
2019-05-07T23:10:34.779Z,9.08
2019-05-07T23:13:04.960Z,8.89
2019-05-07T23:15:36.560Z,8.94
2019-05-07T23:18:07.246Z,8.94
2019-05-07T23:20:37.505Z,9.02
2019-05-07T23:23:08.654Z,8.95
2019-05-07T23:25:38.946Z,9.10
2019-05-07T23:28:09.150Z,9.14
2019-05-07T23:30:39.445Z,9.20
2019-05-07T23:33:11.956Z,9.38
2019-05-07T23:35:42.207Z,9.51
2019-05-07T23:38:15.729Z,9.62
2019-05-07T23:41:03.524Z,9.51
2019-05-07T23:43:34.389Z,9.42
2019-05-07T23:46:04.567Z,9.42
2019-05-07T23:48:35.817Z,9.31
2019-05-07T23:51:06.539Z,9.25
2019-05-07T23:53:36.883Z,9.15
2019-05-07T23:56:07.393Z,8.96
2019-05-07T23:58:37.616Z,8.97
